KPMH/PMH METAR and TAF weather

Enter ICAO airport designator
Station Type Date Time Source
KPMH METAR 2020/04/03 22:36 UTC NOAA

KPMH 032236Z AUTO 36008KT 10SM CLR 20/M01 A3000 RMK AO2 T01961015


Station Type Date Time Source
KPMH Decoded METAR 2020/04/03 22:36 UTC NOAA

Station name not available
Apr 03, 2020 - 06:36 PM EDT / 2020.04.03 2236 UTC
Wind: from the N (360 degrees) at 9 MPH (8 KT):0
Visibility: 10 mile(s):0
Sky conditions: clear
Temperature: 67.3 F (19.6 C)
Dew Point: 29.3 F (-1.5 C)
Relative Humidity: 24%
Pressure (altimeter): 30 in. Hg (1015 hPa)
ob: KPMH 032236Z AUTO 36008KT 10SM CLR 20/M01 A3000 RMK AO2 T01961015
cycle: 22

Station Type Date Time Source
KPMH TAF UTC NOAA

Error!

Example: see airport list